createdAt,value
2023-01-23T00:00:35.776Z,84.60
2023-01-23T00:03:02.384Z,70.63
2023-01-23T00:05:29.031Z,81.77
2023-01-23T00:07:55.663Z,84.50
2023-01-23T00:10:22.240Z,73.70
2023-01-23T00:12:49.195Z,85.37
2023-01-23T00:15:16.177Z,93.07
2023-01-23T00:17:42.813Z,81.50
2023-01-23T00:20:10.356Z,76.80
2023-01-23T00:22:36.959Z,58.93
2023-01-23T00:25:04.103Z,98.77
2023-01-23T00:27:30.783Z,88.03
2023-01-23T00:29:58.172Z,94.67
2023-01-23T00:32:25.088Z,88.97
2023-01-23T00:34:51.694Z,86.23
2023-01-23T00:37:18.363Z,75.70
2023-01-23T00:39:46.010Z,77.67
2023-01-23T00:42:12.839Z,81.77
2023-01-23T00:44:39.423Z,76.47
2023-01-23T00:47:06.462Z,84.00
2023-01-23T00:49:33.111Z,83.33
2023-01-23T00:51:59.905Z,78.20
2023-01-23T00:54:28.040Z,73.73
2023-01-23T00:56:54.791Z,60.97
2023-01-23T00:59:22.491Z,67.70
2023-01-23T01:01:49.230Z,63.73
2023-01-23T01:04:15.932Z,81.00
2023-01-23T01:06:42.736Z,77.33
2023-01-23T01:09:09.687Z,65.03
2023-01-23T01:11:37.981Z,64.57
2023-01-23T01:14:05.140Z,75.70
2023-01-23T01:16:31.912Z,66.03
2023-01-23T01:18:58.743Z,88.67
2023-01-23T01:21:25.376Z,84.33
2023-01-23T01:23:51.960Z,71.87
2023-01-23T01:26:19.140Z,91.97
2023-01-23T01:28:45.758Z,97.20
2023-01-23T01:31:15.122Z,118.13
2023-01-23T01:33:42.633Z,107.57
2023-01-23T01:36:10.720Z,98.83
2023-01-23T01:38:38.500Z,109.63
2023-01-23T01:41:06.554Z,106.47
2023-01-23T01:43:34.516Z,101.77
2023-01-23T01:46:04.387Z,119.90
2023-01-23T01:48:36.887Z,113.80
2023-01-23T01:51:06.469Z,92.90
2023-01-23T01:53:33.625Z,118.33
2023-01-23T01:56:00.531Z,114.97
2023-01-23T01:58:27.328Z,169.07
2023-01-23T02:00:55.100Z,100.43
2023-01-23T02:03:22.088Z,134.67
2023-01-23T02:05:49.853Z,198.60
2023-01-23T02:08:35.140Z,145.63
2023-01-23T02:11:05.294Z,126.70
2023-01-23T02:13:36.911Z,193.10
2023-01-23T02:16:05.566Z,181.27
2023-01-23T02:18:33.716Z,126.80
2023-01-23T02:21:01.957Z,147.63
2023-01-23T02:23:42.542Z,171.60
2023-01-23T02:26:14.563Z,162.10
2023-01-23T02:28:44.416Z,147.13
2023-01-23T02:31:14.002Z,129.27
2023-01-23T02:33:40.751Z,136.97
2023-01-23T02:36:09.061Z,122.83
2023-01-23T02:38:37.701Z,101.23
2023-01-23T02:41:07.535Z,114.10
2023-01-23T02:43:38.363Z,118.37
2023-01-23T02:46:08.665Z,109.73
2023-01-23T02:48:37.174Z,105.93
2023-01-23T02:51:03.953Z,92.23
2023-01-23T02:53:31.629Z,86.73
2023-01-23T02:55:59.509Z,91.67
2023-01-23T02:58:45.518Z,87.00
2023-01-23T03:01:12.435Z,74.30
2023-01-23T03:03:42.598Z,98.27
2023-01-23T03:06:09.517Z,86.23
2023-01-23T03:08:47.262Z,88.53
2023-01-23T03:11:14.709Z,89.70
2023-01-23T03:13:41.659Z,75.57
2023-01-23T03:16:09.615Z,95.67
2023-01-23T03:18:52.959Z,82.87
2023-01-23T03:21:21.449Z,78.87
2023-01-23T03:23:48.471Z,92.93
2023-01-23T03:26:15.567Z,105.73
2023-01-23T03:29:01.766Z,94.90
2023-01-23T03:31:28.679Z,91.77
2023-01-23T03:33:55.279Z,78.63
2023-01-23T03:36:22.594Z,100.93
2023-01-23T03:39:08.149Z,88.40
2023-01-23T03:41:38.340Z,98.23
2023-01-23T03:44:06.660Z,104.40
2023-01-23T03:46:33.470Z,100.90
2023-01-23T03:49:00.227Z,78.97
2023-01-23T03:51:27.110Z,93.73
2023-01-23T03:53:54.257Z,81.67
2023-01-23T03:56:21.258Z,84.67
2023-01-23T03:58:48.156Z,83.97
2023-01-23T04:01:15.063Z,74.53
2023-01-23T04:03:43.650Z,81.17
2023-01-23T04:06:10.556Z,78.17
2023-01-23T04:08:37.997Z,88.67
2023-01-23T04:11:06.411Z,74.53
2023-01-23T04:13:33.096Z,85.00
2023-01-23T04:16:00.491Z,76.70
2023-01-23T04:18:27.337Z,88.37
2023-01-23T04:20:54.201Z,95.73
2023-01-23T04:23:21.431Z,81.47
2023-01-23T04:25:48.192Z,79.00
2023-01-23T04:28:16.007Z,88.43
2023-01-23T04:30:44.011Z,87.10
2023-01-23T04:33:19.286Z,74.93
2023-01-23T04:35:54.410Z,90.13
2023-01-23T04:38:22.509Z,74.27
2023-01-23T04:40:49.943Z,73.17
2023-01-23T04:43:17.939Z,81.07
2023-01-23T04:45:53.001Z,66.57
2023-01-23T04:48:48.760Z,67.10
2023-01-23T04:51:16.317Z,70.40
2023-01-23T04:53:43.039Z,72.17
2023-01-23T04:56:09.737Z,61.73
2023-01-23T04:58:36.950Z,73.00
2023-01-23T05:01:06.142Z,66.07
2023-01-23T05:03:35.395Z,66.33
2023-01-23T05:06:02.157Z,64.70
2023-01-23T05:08:28.898Z,58.30
2023-01-23T05:11:08.499Z,63.03
2023-01-23T05:13:35.237Z,55.07
2023-01-23T05:16:02.386Z,51.77
2023-01-23T05:18:35.678Z,65.23
2023-01-23T05:21:02.751Z,56.23
2023-01-23T05:23:29.471Z,63.83
2023-01-23T05:25:56.120Z,65.27
2023-01-23T05:28:23.499Z,58.27
2023-01-23T05:30:54.404Z,69.67
2023-01-23T05:33:40.531Z,52.30
2023-01-23T05:36:07.576Z,55.73
2023-01-23T05:38:34.648Z,61.17
2023-01-23T05:41:02.590Z,58.87
2023-01-23T05:43:51.987Z,57.23
2023-01-23T05:46:40.873Z,56.27
2023-01-23T05:49:08.290Z,57.10
2023-01-23T05:51:35.147Z,53.80
2023-01-23T05:54:02.844Z,50.30
2023-01-23T05:56:30.297Z,61.80
2023-01-23T05:59:15.633Z,55.00
2023-01-23T06:01:54.254Z,57.53
2023-01-23T06:04:38.822Z,55.33
2023-01-23T06:07:20.180Z,65.03
2023-01-23T06:09:50.766Z,56.97
2023-01-23T06:12:17.495Z,50.33
2023-01-23T06:14:44.142Z,52.20
2023-01-23T06:17:12.166Z,54.03
2023-01-23T06:19:38.791Z,57.53
2023-01-23T06:22:05.462Z,64.03
2023-01-23T06:24:42.834Z,55.10
2023-01-23T06:27:09.823Z,49.30
2023-01-23T06:29:38.353Z,52.17
2023-01-23T06:32:05.555Z,49.60
2023-01-23T06:34:32.860Z,52.73
2023-01-23T06:37:03.037Z,54.47
2023-01-23T06:39:34.273Z,58.60
2023-01-23T06:42:02.180Z,55.70
2023-01-23T06:44:28.931Z,53.97
2023-01-23T06:46:55.777Z,53.13
2023-01-23T06:49:24.108Z,55.17
2023-01-23T06:51:52.134Z,51.90
2023-01-23T06:54:20.924Z,49.40
2023-01-23T06:56:49.487Z,50.20
2023-01-23T06:59:16.739Z,53.30
2023-01-23T07:01:43.966Z,50.87
2023-01-23T07:04:18.213Z,47.00
2023-01-23T07:06:47.517Z,44.70
2023-01-23T07:09:16.217Z,48.33
2023-01-23T07:11:49.017Z,45.97
2023-01-23T07:14:15.998Z,46.30
2023-01-23T07:16:46.116Z,46.30
2023-01-23T07:19:12.819Z,44.77
2023-01-23T07:21:41.039Z,50.30
2023-01-23T07:24:08.249Z,50.13
2023-01-23T07:26:34.843Z,48.83
2023-01-23T07:29:01.476Z,49.70
2023-01-23T07:31:28.169Z,50.80
2023-01-23T07:33:54.987Z,54.33
2023-01-23T07:36:21.636Z,44.77
2023-01-23T07:38:48.236Z,46.67
2023-01-23T07:41:14.834Z,45.23
2023-01-23T07:43:41.389Z,46.47
2023-01-23T07:46:09.797Z,45.77
2023-01-23T07:48:37.040Z,38.27
2023-01-23T07:51:03.866Z,49.63
2023-01-23T07:53:31.001Z,43.13
2023-01-23T07:55:57.643Z,43.47
2023-01-23T07:58:24.303Z,39.93
2023-01-23T08:00:51.072Z,43.27
2023-01-23T08:03:17.720Z,42.37
2023-01-23T08:05:48.085Z,39.70
2023-01-23T08:08:14.905Z,47.47
2023-01-23T08:10:41.766Z,41.97
2023-01-23T08:13:08.360Z,43.07
2023-01-23T08:15:34.982Z,43.63
2023-01-23T08:18:01.558Z,40.60
2023-01-23T08:20:28.605Z,40.07
2023-01-23T08:22:56.346Z,40.47
2023-01-23T08:25:22.942Z,46.87
2023-01-23T08:27:49.580Z,45.50
2023-01-23T08:30:16.407Z,39.10
2023-01-23T08:32:43.142Z,41.77
2023-01-23T08:35:10.062Z,42.83
2023-01-23T08:37:37.116Z,43.07
2023-01-23T08:40:04.272Z,43.90
2023-01-23T08:42:30.947Z,33.87
2023-01-23T08:44:57.556Z,42.67
2023-01-23T08:47:24.217Z,36.63
2023-01-23T08:49:50.875Z,37.80
2023-01-23T08:52:17.586Z,41.53
2023-01-23T08:54:44.187Z,34.23
2023-01-23T08:57:10.770Z,39.87
2023-01-23T08:59:37.365Z,40.10
2023-01-23T09:02:04.048Z,39.43
2023-01-23T09:04:30.728Z,35.60
2023-01-23T09:06:57.347Z,32.13
2023-01-23T09:09:24.158Z,38.30
2023-01-23T09:11:50.757Z,35.47
2023-01-23T09:14:17.420Z,34.13
2023-01-23T09:16:44.247Z,31.03
2023-01-23T09:19:12.732Z,30.30
2023-01-23T09:21:39.406Z,36.83
2023-01-23T09:24:06.319Z,34.10
2023-01-23T09:26:33.325Z,34.57
2023-01-23T09:28:59.975Z,35.97
2023-01-23T09:31:26.663Z,33.23
2023-01-23T09:33:53.343Z,34.63
2023-01-23T09:36:25.405Z,34.27
2023-01-23T09:39:00.600Z,36.63
2023-01-23T09:41:28.204Z,32.97
2023-01-23T09:43:59.023Z,34.83
2023-01-23T09:46:25.601Z,31.50
2023-01-23T09:48:58.183Z,32.90
2023-01-23T09:51:38.309Z,35.50
2023-01-23T09:54:11.748Z,31.50
2023-01-23T09:56:41.775Z,32.33
2023-01-23T09:59:13.703Z,36.47
2023-01-23T10:01:40.646Z,35.03
2023-01-23T10:04:10.699Z,31.47
2023-01-23T10:06:53.320Z,32.47
2023-01-23T10:09:30.259Z,29.97
2023-01-23T10:12:21.877Z,29.23
2023-01-23T10:14:51.452Z,30.83
2023-01-23T10:17:29.994Z,31.40
2023-01-23T10:19:56.603Z,33.33
2023-01-23T10:22:41.692Z,30.97
2023-01-23T10:25:12.391Z,30.83
2023-01-23T10:27:42.295Z,30.17
2023-01-23T10:30:12.098Z,33.13
2023-01-23T10:32:57.434Z,30.27
2023-01-23T10:35:25.810Z,32.67
2023-01-23T10:37:57.283Z,31.97
2023-01-23T10:40:43.314Z,30.87
2023-01-23T10:43:20.783Z,29.07
2023-01-23T10:45:48.873Z,27.53
2023-01-23T10:48:27.661Z,29.00
2023-01-23T10:50:55.499Z,29.50
2023-01-23T10:53:22.176Z,31.73
2023-01-23T10:55:50.317Z,29.60
2023-01-23T10:58:33.873Z,29.57
2023-01-23T11:01:01.011Z,28.33
2023-01-23T11:03:27.884Z,34.40
2023-01-23T11:06:00.848Z,27.87
2023-01-23T11:08:38.218Z,27.37
2023-01-23T11:11:17.007Z,27.60
2023-01-23T11:13:45.329Z,27.93
2023-01-23T11:16:16.390Z,30.83
2023-01-23T11:18:47.452Z,30.57
2023-01-23T11:21:24.566Z,29.83
2023-01-23T11:24:07.399Z,31.03
2023-01-23T11:26:34.638Z,29.70
2023-01-23T11:29:01.352Z,28.97
2023-01-23T11:31:29.088Z,28.73
2023-01-23T11:34:16.025Z,26.27
2023-01-23T11:36:54.076Z,30.60
2023-01-23T11:39:23.510Z,29.73
2023-01-23T11:41:50.283Z,29.17
2023-01-23T11:44:18.729Z,29.30
2023-01-23T11:46:54.839Z,28.80
2023-01-23T11:49:30.583Z,30.13
2023-01-23T11:52:03.422Z,29.00
2023-01-23T11:54:33.334Z,23.47
2023-01-23T11:57:00.015Z,25.30
2023-01-23T11:59:35.735Z,25.33
2023-01-23T12:02:08.523Z,25.33
2023-01-23T12:04:35.118Z,27.70
2023-01-23T12:07:21.320Z,30.83
2023-01-23T12:09:50.985Z,29.17
2023-01-23T12:12:26.781Z,37.77
2023-01-23T12:15:03.153Z,34.90
2023-01-23T12:17:36.676Z,44.77
2023-01-23T12:20:15.614Z,59.73
2023-01-23T12:22:48.311Z,32.93
2023-01-23T12:25:22.775Z,35.57
2023-01-23T12:27:50.377Z,35.87
2023-01-23T12:30:23.248Z,39.67
2023-01-23T12:32:56.109Z,28.30
2023-01-23T12:35:29.287Z,31.73
2023-01-23T12:37:58.888Z,42.30
2023-01-23T12:40:31.047Z,32.37
2023-01-23T12:43:04.145Z,42.33
2023-01-23T12:45:31.776Z,34.30
2023-01-23T12:48:03.023Z,47.47
2023-01-23T12:50:35.244Z,31.57
2023-01-23T12:53:06.147Z,29.67
2023-01-23T12:55:35.914Z,28.10
2023-01-23T12:58:10.086Z,39.73
2023-01-23T13:00:58.586Z,41.10
2023-01-23T13:03:37.274Z,35.43
2023-01-23T13:06:19.718Z,30.57
2023-01-23T13:09:02.422Z,31.60
2023-01-23T13:11:55.555Z,35.03
2023-01-23T13:14:29.136Z,31.13
2023-01-23T13:17:00.839Z,31.53
2023-01-23T13:19:49.995Z,32.17
2023-01-23T13:22:32.635Z,29.73
2023-01-23T13:25:17.585Z,28.77
2023-01-23T13:27:51.657Z,30.10
2023-01-23T13:30:25.253Z,27.23
2023-01-23T13:32:52.688Z,29.57
2023-01-23T13:35:38.101Z,30.80
2023-01-23T13:38:22.860Z,28.63
2023-01-23T13:41:04.715Z,27.57
2023-01-23T13:43:49.817Z,28.97
2023-01-23T13:46:24.739Z,28.73
2023-01-23T14:22:41.994Z,24.17
2023-01-23T14:25:17.268Z,22.93
2023-01-23T14:27:52.899Z,25.80
2023-01-23T14:30:23.981Z,22.63
2023-01-23T14:32:50.648Z,22.20
2023-01-23T14:35:17.336Z,23.33
2023-01-23T14:37:44.687Z,24.33
2023-01-23T14:40:26.514Z,23.73
2023-01-23T14:43:01.015Z,25.20
2023-01-23T14:45:33.300Z,21.23
2023-01-23T14:48:06.167Z,23.73
2023-01-23T14:50:33.989Z,24.53
2023-01-23T14:53:01.515Z,24.13
2023-01-23T14:55:30.020Z,24.63
2023-01-23T14:57:58.155Z,21.43
2023-01-23T15:00:25.688Z,25.43
2023-01-23T15:02:54.549Z,25.20
2023-01-23T15:05:23.800Z,21.97
2023-01-23T15:07:58.028Z,25.10
2023-01-23T15:10:29.707Z,25.17
2023-01-23T15:12:56.806Z,25.50
2023-01-23T15:15:25.099Z,21.90
2023-01-23T15:17:52.758Z,17.50
2023-01-23T15:20:29.487Z,23.27
2023-01-23T15:22:56.523Z,24.97
2023-01-23T15:25:27.369Z,20.27
2023-01-23T15:27:54.120Z,24.77
2023-01-23T15:30:35.929Z,24.03
2023-01-23T15:33:07.464Z,19.73
2023-01-23T15:35:34.746Z,22.83
2023-01-23T15:38:05.604Z,26.50
2023-01-23T15:40:35.343Z,18.90
2023-01-23T15:43:04.042Z,21.37
2023-01-23T15:45:30.639Z,32.40
2023-01-23T15:47:57.409Z,50.20
2023-01-23T15:50:24.119Z,30.73
2023-01-23T15:52:52.239Z,18.63
2023-01-23T15:55:19.667Z,18.57
2023-01-23T15:57:46.665Z,21.10
2023-01-23T16:00:14.647Z,29.87
2023-01-23T16:02:54.751Z,21.30
2023-01-23T16:05:24.472Z,25.07
2023-01-23T16:07:51.663Z,23.03
2023-01-23T16:10:22.304Z,23.83
2023-01-23T16:12:50.118Z,21.13
2023-01-23T16:15:18.587Z,29.03
2023-01-23T16:17:45.635Z,22.67
2023-01-23T16:20:20.117Z,22.03
2023-01-23T16:22:48.494Z,23.87
2023-01-23T16:25:18.183Z,23.73
2023-01-23T16:27:44.835Z,27.67
2023-01-23T16:30:19.203Z,22.30
2023-01-23T16:32:45.993Z,27.90
2023-01-23T16:35:13.322Z,23.67
2023-01-23T16:37:41.025Z,23.10
2023-01-23T16:40:21.151Z,21.00
2023-01-23T16:42:48.877Z,18.77
2023-01-23T16:45:19.001Z,20.63
2023-01-23T16:47:45.976Z,18.83
2023-01-23T16:50:16.937Z,20.03
2023-01-23T16:52:48.569Z,21.07
2023-01-23T16:55:23.843Z,18.73
2023-01-23T16:57:52.420Z,20.40
2023-01-23T17:00:33.438Z,22.83
2023-01-23T17:03:01.998Z,22.37
2023-01-23T17:05:28.636Z,24.27
2023-01-23T17:07:55.199Z,21.93
2023-01-23T17:10:24.029Z,20.07
2023-01-23T17:12:56.449Z,19.60
2023-01-23T17:15:28.196Z,18.43
2023-01-23T17:17:56.614Z,21.70
2023-01-23T17:20:23.383Z,19.23
2023-01-23T17:22:51.327Z,22.53
2023-01-23T17:25:19.542Z,21.30
2023-01-23T17:27:54.624Z,21.93
2023-01-23T17:30:27.381Z,23.53
2023-01-23T17:32:57.969Z,23.43
2023-01-23T17:35:29.443Z,23.10
2023-01-23T17:37:57.955Z,21.77
2023-01-23T17:40:24.604Z,24.30
2023-01-23T17:42:51.253Z,26.67
2023-01-23T17:45:19.710Z,28.90
2023-01-23T17:47:47.909Z,35.47
2023-01-23T17:50:22.466Z,39.63
2023-01-23T17:52:50.111Z,51.93
2023-01-23T17:55:24.417Z,36.97
2023-01-23T17:57:51.826Z,26.97
2023-01-23T18:00:19.780Z,24.10
2023-01-23T18:02:48.975Z,20.33
2023-01-23T18:05:15.750Z,31.83
2023-01-23T18:07:52.997Z,31.27
2023-01-23T18:10:22.060Z,39.37
2023-01-23T18:13:03.568Z,35.27
2023-01-23T18:15:39.223Z,35.73
2023-01-23T18:18:24.494Z,26.00
2023-01-23T18:20:54.802Z,22.83
2023-01-23T18:23:23.069Z,27.77
2023-01-23T18:25:55.757Z,26.30
2023-01-23T18:28:23.702Z,22.00
2023-01-23T18:30:53.539Z,27.53
2023-01-23T18:33:39.038Z,24.87
2023-01-23T18:36:05.973Z,28.47
2023-01-23T18:38:51.390Z,28.20
2023-01-23T18:41:18.602Z,30.93
2023-01-23T18:43:49.410Z,25.73
2023-01-23T18:46:17.862Z,31.60
2023-01-23T18:48:45.925Z,31.60
2023-01-23T18:51:21.619Z,29.00
2023-01-23T18:54:07.263Z,28.40
2023-01-23T18:56:38.682Z,25.50
2023-01-23T18:59:17.909Z,26.27
2023-01-23T19:01:53.505Z,26.73
2023-01-23T19:04:38.713Z,20.73
2023-01-23T19:07:15.752Z,22.27
2023-01-23T19:09:46.509Z,25.53
2023-01-23T19:12:25.770Z,23.70
2023-01-23T19:15:19.178Z,23.20
2023-01-23T19:17:48.279Z,23.10
2023-01-23T19:20:20.875Z,22.87
2023-01-23T19:22:47.856Z,24.57
2023-01-23T19:25:16.053Z,26.73
2023-01-23T19:27:42.927Z,28.80
2023-01-23T19:30:11.529Z,29.97
2023-01-23T19:32:38.114Z,23.40
2023-01-23T19:35:13.759Z,25.03
2023-01-23T19:37:41.554Z,25.40
2023-01-23T19:40:09.573Z,26.20
2023-01-23T19:42:52.332Z,30.47
2023-01-23T19:45:25.566Z,24.07
2023-01-23T19:47:53.493Z,26.87
2023-01-23T19:50:21.361Z,26.07
2023-01-23T19:52:48.730Z,25.80
2023-01-23T19:55:26.214Z,21.73
2023-01-23T19:57:53.156Z,25.10
2023-01-23T20:00:20.432Z,28.23
2023-01-23T20:02:47.483Z,27.43
2023-01-23T20:05:14.300Z,29.63
2023-01-23T20:07:41.031Z,32.17
2023-01-23T20:10:09.300Z,31.97
2023-01-23T20:12:55.365Z,27.47
2023-01-23T20:15:24.044Z,27.30
2023-01-23T20:17:51.579Z,27.07
2023-01-23T20:20:18.416Z,25.73
2023-01-23T20:22:45.248Z,27.53
2023-01-23T20:25:13.520Z,24.70
2023-01-23T20:27:40.783Z,28.03
2023-01-23T20:30:09.517Z,24.33
2023-01-23T20:32:36.337Z,26.87
2023-01-23T20:35:03.011Z,25.30
2023-01-23T20:37:29.908Z,29.03
2023-01-23T20:39:56.516Z,29.57
2023-01-23T20:42:23.288Z,29.73
2023-01-23T20:44:49.917Z,27.30
2023-01-23T20:47:16.584Z,27.87
2023-01-23T20:49:43.270Z,34.37
2023-01-23T20:52:28.628Z,29.37
2023-01-23T20:54:55.281Z,28.33
2023-01-23T20:57:21.864Z,24.20
2023-01-23T20:59:48.501Z,27.40
2023-01-23T21:02:24.321Z,28.20
2023-01-23T21:04:51.607Z,30.27
2023-01-23T21:07:22.994Z,26.60
2023-01-23T21:09:49.771Z,26.60
2023-01-23T21:12:16.377Z,28.23
2023-01-23T21:14:43.094Z,28.83
2023-01-23T21:17:09.965Z,29.40
2023-01-23T21:19:37.868Z,28.00
2023-01-23T21:22:06.164Z,25.67
2023-01-23T21:24:36.142Z,27.60
2023-01-23T21:27:03.372Z,24.33
2023-01-23T21:29:30.496Z,24.43
2023-01-23T21:31:57.715Z,25.00
2023-01-23T21:34:24.776Z,23.70
2023-01-23T21:36:51.725Z,25.50
2023-01-23T21:39:18.725Z,27.00
2023-01-23T21:41:45.540Z,22.50
2023-01-23T21:44:12.676Z,26.70
2023-01-23T21:46:39.372Z,20.80
2023-01-23T21:49:06.124Z,25.00
2023-01-23T21:51:32.840Z,23.67
2023-01-23T21:53:59.518Z,24.97
2023-01-23T21:56:26.156Z,24.17
2023-01-23T21:58:53.008Z,21.90
2023-01-23T22:01:36.115Z,24.17
2023-01-23T22:04:09.215Z,26.33
2023-01-23T22:06:36.413Z,26.33
2023-01-23T22:09:04.280Z,24.57
2023-01-23T22:11:31.145Z,23.87
2023-01-23T22:13:57.922Z,24.33
2023-01-23T22:16:40.112Z,23.00
2023-01-23T22:19:13.558Z,26.83
2023-01-23T22:21:40.263Z,24.27
2023-01-23T22:24:07.077Z,31.10
2023-01-23T22:26:34.242Z,27.47
2023-01-23T22:29:01.098Z,26.67
2023-01-23T22:31:27.916Z,25.23
2023-01-23T22:33:55.365Z,27.00
2023-01-23T22:36:21.983Z,24.33
2023-01-23T22:38:52.292Z,22.77
2023-01-23T22:41:19.971Z,25.93
2023-01-23T22:43:46.562Z,23.30
2023-01-23T22:46:15.020Z,22.20
2023-01-23T22:48:41.966Z,26.80
2023-01-23T22:51:14.035Z,20.77
2023-01-23T22:53:40.717Z,26.43
2023-01-23T22:56:07.666Z,22.13
2023-01-23T22:58:34.482Z,22.83
2023-01-23T23:01:01.332Z,25.27
2023-01-23T23:03:30.323Z,25.83
2023-01-23T23:06:07.367Z,30.17
2023-01-23T23:08:34.904Z,27.73
2023-01-23T23:11:11.981Z,26.70
2023-01-23T23:13:39.218Z,26.50
2023-01-23T23:16:07.077Z,24.63
2023-01-23T23:18:34.308Z,24.07
2023-01-23T23:21:05.175Z,21.87
2023-01-23T23:23:32.130Z,24.03
2023-01-23T23:25:58.761Z,22.90
2023-01-23T23:28:26.373Z,22.47
2023-01-23T23:30:53.560Z,20.03
2023-01-23T23:33:20.604Z,21.50
2023-01-23T23:35:47.232Z,19.50
2023-01-23T23:38:13.868Z,20.57
2023-01-23T23:40:40.451Z,22.10
2023-01-23T23:43:07.117Z,23.10
2023-01-23T23:45:34.314Z,24.10
2023-01-23T23:48:02.274Z,21.93
2023-01-23T23:50:29.273Z,21.07
2023-01-23T23:52:55.931Z,21.63
2023-01-23T23:55:22.940Z,24.57
2023-01-23T23:57:49.854Z,22.37
